sensor_id;sensor_type;location;lat;lon;timestamp;P1;durP1;ratioP1;P2;durP2;ratioP2
44766;SDS011;30487;48.716;9.272;2023-04-23T00:00:13;4.30;;;1.50;;
44766;SDS011;30487;48.716;9.272;2023-04-23T00:02:40;4.00;;;1.58;;
44766;SDS011;30487;48.716;9.272;2023-04-23T00:05:08;5.32;;;1.80;;
44766;SDS011;30487;48.716;9.272;2023-04-23T00:07:36;6.25;;;2.00;;
44766;SDS011;30487;48.716;9.272;2023-04-23T00:10:03;4.00;;;1.58;;
44766;SDS011;30487;48.716;9.272;2023-04-23T00:12:30;5.90;;;1.75;;
44766;SDS011;30487;48.716;9.272;2023-04-23T00:14:56;4.18;;;1.85;;
44766;SDS011;30487;48.716;9.272;2023-04-23T00:17:22;4.10;;;1.65;;
44766;SDS011;30487;48.716;9.272;2023-04-23T00:19:48;4.45;;;1.70;;
44766;SDS011;30487;48.716;9.272;2023-04-23T00:22:14;8.68;;;1.92;;
44766;SDS011;30487;48.716;9.272;2023-04-23T00:24:41;4.88;;;1.67;;
44766;SDS011;30487;48.716;9.272;2023-04-23T00:27:07;4.60;;;1.70;;
44766;SDS011;30487;48.716;9.272;2023-04-23T00:29:33;4.43;;;1.88;;
44766;SDS011;30487;48.716;9.272;2023-04-23T00:31:58;4.65;;;1.70;;
44766;SDS011;30487;48.716;9.272;2023-04-23T00:34:24;3.33;;;1.60;;
44766;SDS011;30487;48.716;9.272;2023-04-23T00:36:50;3.90;;;1.45;;
44766;SDS011;30487;48.716;9.272;2023-04-23T00:39:16;3.72;;;1.60;;
44766;SDS011;30487;48.716;9.272;2023-04-23T00:41:42;3.55;;;1.30;;
44766;SDS011;30487;48.716;9.272;2023-04-23T00:44:08;6.03;;;1.60;;
44766;SDS011;30487;48.716;9.272;2023-04-23T00:46:34;5.00;;;1.30;;
44766;SDS011;30487;48.716;9.272;2023-04-23T00:49:03;2.60;;;1.25;;
44766;SDS011;30487;48.716;9.272;2023-04-23T00:51:28;3.42;;;1.40;;
44766;SDS011;30487;48.716;9.272;2023-04-23T00:53:56;2.65;;;1.30;;
44766;SDS011;30487;48.716;9.272;2023-04-23T00:56:21;3.22;;;1.42;;
44766;SDS011;30487;48.716;9.272;2023-04-23T00:58:48;3.20;;;1.30;;
44766;SDS011;30487;48.716;9.272;2023-04-23T01:01:15;3.97;;;1.58;;
44766;SDS011;30487;48.716;9.272;2023-04-23T01:03:45;3.00;;;1.50;;
44766;SDS011;30487;48.716;9.272;2023-04-23T01:06:15;5.57;;;1.50;;
44766;SDS011;30487;48.716;9.272;2023-04-23T01:08:44;3.47;;;1.55;;
44766;SDS011;30487;48.716;9.272;2023-04-23T01:11:14;3.25;;;1.50;;
44766;SDS011;30487;48.716;9.272;2023-04-23T01:13:40;3.95;;;1.20;;
44766;SDS011;30487;48.716;9.272;2023-04-23T01:16:07;3.20;;;1.27;;
44766;SDS011;30487;48.716;9.272;2023-04-23T01:18:33;2.03;;;1.27;;
44766;SDS011;30487;48.716;9.272;2023-04-23T01:20:59;3.00;;;1.55;;
44766;SDS011;30487;48.716;9.272;2023-04-23T01:23:25;2.75;;;1.33;;
44766;SDS011;30487;48.716;9.272;2023-04-23T01:25:52;4.20;;;1.40;;
44766;SDS011;30487;48.716;9.272;2023-04-23T01:28:18;3.53;;;1.38;;
44766;SDS011;30487;48.716;9.272;2023-04-23T01:30:44;1.73;;;1.10;;
44766;SDS011;30487;48.716;9.272;2023-04-23T01:33:11;3.17;;;1.40;;
44766;SDS011;30487;48.716;9.272;2023-04-23T01:35:38;5.78;;;1.30;;
44766;SDS011;30487;48.716;9.272;2023-04-23T01:38:04;3.35;;;1.40;;
44766;SDS011;30487;48.716;9.272;2023-04-23T01:40:33;2.28;;;1.20;;
44766;SDS011;30487;48.716;9.272;2023-04-23T01:42:58;2.65;;;1.20;;
44766;SDS011;30487;48.716;9.272;2023-04-23T01:45:24;3.28;;;1.48;;
44766;SDS011;30487;48.716;9.272;2023-04-23T01:47:50;3.45;;;1.33;;
44766;SDS011;30487;48.716;9.272;2023-04-23T01:50:16;3.15;;;1.67;;
44766;SDS011;30487;48.716;9.272;2023-04-23T01:52:42;3.33;;;1.38;;
44766;SDS011;30487;48.716;9.272;2023-04-23T01:55:09;2.28;;;1.20;;
44766;SDS011;30487;48.716;9.272;2023-04-23T01:57:35;4.70;;;1.40;;
44766;SDS011;30487;48.716;9.272;2023-04-23T02:00:05;3.55;;;1.35;;
44766;SDS011;30487;48.716;9.272;2023-04-23T02:02:33;2.42;;;1.27;;
44766;SDS011;30487;48.716;9.272;2023-04-23T02:04:59;4.95;;;1.40;;
44766;SDS011;30487;48.716;9.272;2023-04-23T02:07:32;3.13;;;1.65;;
44766;SDS011;30487;48.716;9.272;2023-04-23T02:09:58;4.45;;;1.55;;
44766;SDS011;30487;48.716;9.272;2023-04-23T02:12:24;4.85;;;1.75;;
44766;SDS011;30487;48.716;9.272;2023-04-23T02:14:50;4.13;;;1.45;;
44766;SDS011;30487;48.716;9.272;2023-04-23T02:17:17;3.30;;;1.45;;
44766;SDS011;30487;48.716;9.272;2023-04-23T02:19:49;2.40;;;1.30;;
44766;SDS011;30487;48.716;9.272;2023-04-23T02:22:15;3.10;;;1.00;;
44766;SDS011;30487;48.716;9.272;2023-04-23T02:24:41;4.80;;;1.30;;
44766;SDS011;30487;48.716;9.272;2023-04-23T02:27:08;2.55;;;1.27;;
44766;SDS011;30487;48.716;9.272;2023-04-23T02:29:34;4.25;;;1.33;;
44766;SDS011;30487;48.716;9.272;2023-04-23T02:32:00;6.13;;;1.30;;
44766;SDS011;30487;48.716;9.272;2023-04-23T02:34:27;2.88;;;1.20;;
44766;SDS011;30487;48.716;9.272;2023-04-23T02:36:52;2.75;;;1.40;;
44766;SDS011;30487;48.716;9.272;2023-04-23T02:39:18;3.88;;;1.45;;
44766;SDS011;30487;48.716;9.272;2023-04-23T02:41:44;2.78;;;1.10;;
44766;SDS011;30487;48.716;9.272;2023-04-23T02:44:09;4.10;;;1.42;;
44766;SDS011;30487;48.716;9.272;2023-04-23T02:46:35;4.78;;;1.20;;
44766;SDS011;30487;48.716;9.272;2023-04-23T02:49:01;2.85;;;1.15;;
44766;SDS011;30487;48.716;9.272;2023-04-23T02:51:27;5.32;;;1.40;;
44766;SDS011;30487;48.716;9.272;2023-04-23T02:53:53;2.20;;;1.20;;
44766;SDS011;30487;48.716;9.272;2023-04-23T02:56:19;3.55;;;1.10;;
44766;SDS011;30487;48.716;9.272;2023-04-23T02:58:44;2.50;;;1.13;;
44766;SDS011;30487;48.716;9.272;2023-04-23T03:01:10;5.82;;;1.23;;
44766;SDS011;30487;48.716;9.272;2023-04-23T03:03:36;3.35;;;1.27;;
44766;SDS011;30487;48.716;9.272;2023-04-23T03:06:03;2.30;;;1.20;;
44766;SDS011;30487;48.716;9.272;2023-04-23T03:08:28;2.90;;;1.20;;
44766;SDS011;30487;48.716;9.272;2023-04-23T03:10:54;2.15;;;1.20;;
44766;SDS011;30487;48.716;9.272;2023-04-23T03:13:20;2.00;;;1.20;;
44766;SDS011;30487;48.716;9.272;2023-04-23T03:15:45;3.17;;;1.10;;
44766;SDS011;30487;48.716;9.272;2023-04-23T03:18:11;2.30;;;1.20;;
44766;SDS011;30487;48.716;9.272;2023-04-23T03:20:37;2.60;;;1.02;;
44766;SDS011;30487;48.716;9.272;2023-04-23T03:23:02;2.08;;;1.23;;
44766;SDS011;30487;48.716;9.272;2023-04-23T03:25:30;1.98;;;1.20;;
44766;SDS011;30487;48.716;9.272;2023-04-23T03:27:56;3.75;;;1.25;;
44766;SDS011;30487;48.716;9.272;2023-04-23T03:30:22;3.83;;;1.13;;
44766;SDS011;30487;48.716;9.272;2023-04-23T03:32:48;2.47;;;1.10;;
44766;SDS011;30487;48.716;9.272;2023-04-23T03:35:14;3.28;;;1.17;;
44766;SDS011;30487;48.716;9.272;2023-04-23T03:37:40;2.75;;;1.00;;
44766;SDS011;30487;48.716;9.272;2023-04-23T03:40:06;2.40;;;1.05;;
44766;SDS011;30487;48.716;9.272;2023-04-23T03:42:33;2.22;;;1.00;;
44766;SDS011;30487;48.716;9.272;2023-04-23T03:44:59;3.55;;;1.20;;
44766;SDS011;30487;48.716;9.272;2023-04-23T03:47:25;3.03;;;1.08;;
44766;SDS011;30487;48.716;9.272;2023-04-23T03:49:51;2.83;;;1.08;;
44766;SDS011;30487;48.716;9.272;2023-04-23T03:52:17;2.42;;;1.00;;
44766;SDS011;30487;48.716;9.272;2023-04-23T03:54:43;3.40;;;1.15;;
44766;SDS011;30487;48.716;9.272;2023-04-23T03:57:08;2.10;;;1.02;;
44766;SDS011;30487;48.716;9.272;2023-04-23T03:59:36;2.63;;;1.30;;
44766;SDS011;30487;48.716;9.272;2023-04-23T04:02:01;2.25;;;1.00;;
44766;SDS011;30487;48.716;9.272;2023-04-23T04:04:30;3.47;;;1.40;;
44766;SDS011;30487;48.716;9.272;2023-04-23T04:06:57;2.42;;;1.00;;
44766;SDS011;30487;48.716;9.272;2023-04-23T04:09:25;1.83;;;1.10;;
44766;SDS011;30487;48.716;9.272;2023-04-23T04:11:51;4.32;;;1.10;;
44766;SDS011;30487;48.716;9.272;2023-04-23T04:14:21;3.05;;;1.27;;
44766;SDS011;30487;48.716;9.272;2023-04-23T04:16:46;3.33;;;1.05;;
44766;SDS011;30487;48.716;9.272;2023-04-23T04:19:12;1.50;;;0.90;;
44766;SDS011;30487;48.716;9.272;2023-04-23T04:21:38;1.65;;;1.10;;
44766;SDS011;30487;48.716;9.272;2023-04-23T04:24:03;1.85;;;1.02;;
44766;SDS011;30487;48.716;9.272;2023-04-23T04:26:30;3.00;;;1.10;;
44766;SDS011;30487;48.716;9.272;2023-04-23T04:28:56;3.53;;;1.30;;
44766;SDS011;30487;48.716;9.272;2023-04-23T04:31:23;2.85;;;1.40;;
44766;SDS011;30487;48.716;9.272;2023-04-23T04:33:52;2.63;;;1.20;;
44766;SDS011;30487;48.716;9.272;2023-04-23T04:36:18;2.88;;;1.30;;
44766;SDS011;30487;48.716;9.272;2023-04-23T04:38:43;2.58;;;1.50;;
44766;SDS011;30487;48.716;9.272;2023-04-23T04:41:09;2.53;;;1.30;;
44766;SDS011;30487;48.716;9.272;2023-04-23T04:43:35;6.63;;;1.63;;
44766;SDS011;30487;48.716;9.272;2023-04-23T04:46:01;4.35;;;1.40;;
44766;SDS011;30487;48.716;9.272;2023-04-23T04:48:27;2.97;;;1.48;;
44766;SDS011;30487;48.716;9.272;2023-04-23T04:50:53;3.00;;;1.25;;
44766;SDS011;30487;48.716;9.272;2023-04-23T04:53:19;1.77;;;1.25;;
44766;SDS011;30487;48.716;9.272;2023-04-23T04:55:44;2.20;;;1.02;;
44766;SDS011;30487;48.716;9.272;2023-04-23T04:58:10;3.25;;;1.23;;
44766;SDS011;30487;48.716;9.272;2023-04-23T05:00:36;4.53;;;1.30;;
44766;SDS011;30487;48.716;9.272;2023-04-23T05:03:02;2.78;;;1.38;;
44766;SDS011;30487;48.716;9.272;2023-04-23T05:05:28;3.92;;;1.50;;
44766;SDS011;30487;48.716;9.272;2023-04-23T05:07:53;3.15;;;1.50;;
44766;SDS011;30487;48.716;9.272;2023-04-23T05:10:19;2.40;;;0.90;;
44766;SDS011;30487;48.716;9.272;2023-04-23T05:12:45;3.35;;;1.20;;
44766;SDS011;30487;48.716;9.272;2023-04-23T05:15:12;3.15;;;1.23;;
44766;SDS011;30487;48.716;9.272;2023-04-23T05:17:41;2.53;;;1.30;;
44766;SDS011;30487;48.716;9.272;2023-04-23T05:20:07;6.82;;;1.75;;
44766;SDS011;30487;48.716;9.272;2023-04-23T05:22:37;3.55;;;1.10;;
44766;SDS011;30487;48.716;9.272;2023-04-23T05:25:03;2.45;;;1.13;;
44766;SDS011;30487;48.716;9.272;2023-04-23T05:27:29;2.50;;;1.17;;
44766;SDS011;30487;48.716;9.272;2023-04-23T05:29:55;2.67;;;1.30;;
44766;SDS011;30487;48.716;9.272;2023-04-23T05:32:21;2.10;;;1.05;;
44766;SDS011;30487;48.716;9.272;2023-04-23T05:34:46;3.80;;;1.23;;
44766;SDS011;30487;48.716;9.272;2023-04-23T05:37:12;3.08;;;1.10;;
44766;SDS011;30487;48.716;9.272;2023-04-23T05:39:37;1.60;;;0.85;;
44766;SDS011;30487;48.716;9.272;2023-04-23T05:42:03;1.67;;;0.90;;
44766;SDS011;30487;48.716;9.272;2023-04-23T05:44:29;1.20;;;0.80;;
44766;SDS011;30487;48.716;9.272;2023-04-23T05:46:54;3.10;;;1.00;;
44766;SDS011;30487;48.716;9.272;2023-04-23T05:49:21;3.15;;;1.30;;
44766;SDS011;30487;48.716;9.272;2023-04-23T05:51:46;2.83;;;1.00;;
44766;SDS011;30487;48.716;9.272;2023-04-23T05:54:12;1.25;;;0.85;;
44766;SDS011;30487;48.716;9.272;2023-04-23T05:56:38;3.67;;;1.17;;
44766;SDS011;30487;48.716;9.272;2023-04-23T05:59:03;1.65;;;0.80;;
44766;SDS011;30487;48.716;9.272;2023-04-23T06:01:30;2.20;;;1.17;;
44766;SDS011;30487;48.716;9.272;2023-04-23T06:03:55;3.25;;;1.15;;
44766;SDS011;30487;48.716;9.272;2023-04-23T06:06:21;1.92;;;0.90;;
44766;SDS011;30487;48.716;9.272;2023-04-23T06:08:47;1.70;;;1.00;;
44766;SDS011;30487;48.716;9.272;2023-04-23T06:11:15;2.55;;;0.93;;
44766;SDS011;30487;48.716;9.272;2023-04-23T06:13:40;4.43;;;1.02;;
44766;SDS011;30487;48.716;9.272;2023-04-23T06:16:07;1.35;;;0.80;;
44766;SDS011;30487;48.716;9.272;2023-04-23T06:18:33;1.20;;;0.70;;
44766;SDS011;30487;48.716;9.272;2023-04-23T06:20:58;2.15;;;0.90;;
44766;SDS011;30487;48.716;9.272;2023-04-23T06:23:28;2.00;;;1.10;;
44766;SDS011;30487;48.716;9.272;2023-04-23T06:25:54;0.93;;;0.70;;
44766;SDS011;30487;48.716;9.272;2023-04-23T06:28:20;2.05;;;0.90;;
44766;SDS011;30487;48.716;9.272;2023-04-23T06:30:45;0.73;;;0.60;;
44766;SDS011;30487;48.716;9.272;2023-04-23T06:33:11;2.90;;;0.68;;
44766;SDS011;30487;48.716;9.272;2023-04-23T06:35:37;2.72;;;0.80;;
44766;SDS011;30487;48.716;9.272;2023-04-23T06:38:03;1.58;;;0.60;;
44766;SDS011;30487;48.716;9.272;2023-04-23T06:40:28;1.85;;;0.80;;
44766;SDS011;30487;48.716;9.272;2023-04-23T06:42:54;2.50;;;0.80;;
44766;SDS011;30487;48.716;9.272;2023-04-23T06:45:20;1.20;;;0.60;;
44766;SDS011;30487;48.716;9.272;2023-04-23T06:47:45;1.52;;;0.60;;
44766;SDS011;30487;48.716;9.272;2023-04-23T06:50:13;1.50;;;0.80;;
44766;SDS011;30487;48.716;9.272;2023-04-23T06:52:39;3.35;;;0.60;;
44766;SDS011;30487;48.716;9.272;2023-04-23T06:55:04;1.63;;;0.52;;
44766;SDS011;30487;48.716;9.272;2023-04-23T06:57:30;1.95;;;0.80;;
44766;SDS011;30487;48.716;9.272;2023-04-23T06:59:56;1.25;;;0.68;;
44766;SDS011;30487;48.716;9.272;2023-04-23T07:02:22;0.98;;;0.60;;
44766;SDS011;30487;48.716;9.272;2023-04-23T07:04:48;0.98;;;0.60;;
44766;SDS011;30487;48.716;9.272;2023-04-23T07:07:13;1.48;;;0.57;;
44766;SDS011;30487;48.716;9.272;2023-04-23T07:09:39;0.80;;;0.50;;
44766;SDS011;30487;48.716;9.272;2023-04-23T07:12:04;1.85;;;0.70;;
44766;SDS011;30487;48.716;9.272;2023-04-23T07:14:30;1.33;;;0.60;;
44766;SDS011;30487;48.716;9.272;2023-04-23T07:16:56;0.90;;;0.55;;
44766;SDS011;30487;48.716;9.272;2023-04-23T07:19:23;0.90;;;0.50;;
44766;SDS011;30487;48.716;9.272;2023-04-23T07:21:48;1.33;;;0.60;;
44766;SDS011;30487;48.716;9.272;2023-04-23T07:24:14;0.30;;;0.30;;
44766;SDS011;30487;48.716;9.272;2023-04-23T07:26:40;0.85;;;0.40;;
44766;SDS011;30487;48.716;9.272;2023-04-23T07:29:06;1.10;;;0.60;;
44766;SDS011;30487;48.716;9.272;2023-04-23T07:31:34;0.80;;;0.50;;
44766;SDS011;30487;48.716;9.272;2023-04-23T07:34:00;1.67;;;0.60;;
44766;SDS011;30487;48.716;9.272;2023-04-23T07:36:26;3.72;;;0.65;;
44766;SDS011;30487;48.716;9.272;2023-04-23T07:38:52;1.25;;;0.50;;
44766;SDS011;30487;48.716;9.272;2023-04-23T07:41:18;2.22;;;0.70;;
44766;SDS011;30487;48.716;9.272;2023-04-23T07:43:43;1.30;;;0.70;;
44766;SDS011;30487;48.716;9.272;2023-04-23T07:46:09;1.17;;;0.60;;
44766;SDS011;30487;48.716;9.272;2023-04-23T07:48:35;0.75;;;0.60;;
44766;SDS011;30487;48.716;9.272;2023-04-23T07:51:00;0.98;;;0.60;;
44766;SDS011;30487;48.716;9.272;2023-04-23T07:53:26;0.85;;;0.60;;
44766;SDS011;30487;48.716;9.272;2023-04-23T07:55:55;2.65;;;0.70;;
44766;SDS011;30487;48.716;9.272;2023-04-23T07:58:22;0.98;;;0.60;;
44766;SDS011;30487;48.716;9.272;2023-04-23T08:00:48;1.88;;;0.70;;
44766;SDS011;30487;48.716;9.272;2023-04-23T08:03:14;0.85;;;0.60;;
44766;SDS011;30487;48.716;9.272;2023-04-23T08:05:40;1.13;;;0.60;;
44766;SDS011;30487;48.716;9.272;2023-04-23T08:08:06;1.98;;;0.60;;
44766;SDS011;30487;48.716;9.272;2023-04-23T08:10:35;1.00;;;0.60;;
44766;SDS011;30487;48.716;9.272;2023-04-23T08:13:01;2.13;;;0.63;;
44766;SDS011;30487;48.716;9.272;2023-04-23T08:15:27;4.72;;;1.10;;
44766;SDS011;30487;48.716;9.272;2023-04-23T08:17:53;1.60;;;0.93;;
44766;SDS011;30487;48.716;9.272;2023-04-23T08:20:19;2.30;;;0.80;;
44766;SDS011;30487;48.716;9.272;2023-04-23T08:22:44;2.95;;;1.15;;
44766;SDS011;30487;48.716;9.272;2023-04-23T08:25:10;4.32;;;1.30;;
44766;SDS011;30487;48.716;9.272;2023-04-23T08:27:37;5.32;;;1.40;;
44766;SDS011;30487;48.716;9.272;2023-04-23T08:30:03;4.15;;;1.20;;
44766;SDS011;30487;48.716;9.272;2023-04-23T08:32:30;0.90;;;0.60;;
44766;SDS011;30487;48.716;9.272;2023-04-23T08:34:56;1.27;;;0.60;;
44766;SDS011;30487;48.716;9.272;2023-04-23T08:37:22;1.48;;;0.90;;
44766;SDS011;30487;48.716;9.272;2023-04-23T08:39:48;0.70;;;0.57;;
44766;SDS011;30487;48.716;9.272;2023-04-23T08:42:26;1.20;;;0.60;;
44766;SDS011;30487;48.716;9.272;2023-04-23T08:45:00;2.35;;;0.80;;
44766;SDS011;30487;48.716;9.272;2023-04-23T08:47:28;1.58;;;0.60;;
44766;SDS011;30487;48.716;9.272;2023-04-23T08:49:54;0.70;;;0.57;;
44766;SDS011;30487;48.716;9.272;2023-04-23T08:52:24;1.65;;;0.70;;
44766;SDS011;30487;48.716;9.272;2023-04-23T08:54:57;2.15;;;0.80;;
44766;SDS011;30487;48.716;9.272;2023-04-23T08:57:25;1.13;;;0.60;;
44766;SDS011;30487;48.716;9.272;2023-04-23T08:59:51;1.05;;;0.70;;
44766;SDS011;30487;48.716;9.272;2023-04-23T09:02:16;2.63;;;0.80;;
44766;SDS011;30487;48.716;9.272;2023-04-23T09:04:43;1.13;;;0.70;;
44766;SDS011;30487;48.716;9.272;2023-04-23T09:07:10;0.73;;;0.50;;
44766;SDS011;30487;48.716;9.272;2023-04-23T09:09:37;2.00;;;0.88;;
44766;SDS011;30487;48.716;9.272;2023-04-23T09:12:04;1.90;;;0.85;;
44766;SDS011;30487;48.716;9.272;2023-04-23T09:14:30;1.25;;;0.70;;
44766;SDS011;30487;48.716;9.272;2023-04-23T09:16:57;1.20;;;0.80;;
44766;SDS011;30487;48.716;9.272;2023-04-23T09:19:22;1.23;;;0.70;;
44766;SDS011;30487;48.716;9.272;2023-04-23T09:21:53;2.08;;;0.70;;
44766;SDS011;30487;48.716;9.272;2023-04-23T09:24:22;0.80;;;0.60;;
44766;SDS011;30487;48.716;9.272;2023-04-23T09:26:49;1.48;;;0.80;;
44766;SDS011;30487;48.716;9.272;2023-04-23T09:29:17;0.98;;;0.65;;
44766;SDS011;30487;48.716;9.272;2023-04-23T09:31:45;1.55;;;0.70;;
44766;SDS011;30487;48.716;9.272;2023-04-23T09:34:19;2.75;;;0.60;;
44766;SDS011;30487;48.716;9.272;2023-04-23T09:36:46;1.10;;;0.70;;
44766;SDS011;30487;48.716;9.272;2023-04-23T09:39:15;1.90;;;0.80;;
44766;SDS011;30487;48.716;9.272;2023-04-23T09:41:46;1.73;;;1.00;;
44766;SDS011;30487;48.716;9.272;2023-04-23T09:44:15;1.20;;;0.88;;
44766;SDS011;30487;48.716;9.272;2023-04-23T09:46:42;1.23;;;0.57;;
44766;SDS011;30487;48.716;9.272;2023-04-23T09:49:10;1.48;;;0.70;;
44766;SDS011;30487;48.716;9.272;2023-04-23T09:51:39;1.00;;;0.70;;
44766;SDS011;30487;48.716;9.272;2023-04-23T09:54:27;1.20;;;0.60;;
44766;SDS011;30487;48.716;9.272;2023-04-23T09:56:54;0.95;;;0.52;;
44766;SDS011;30487;48.716;9.272;2023-04-23T09:59:26;1.17;;;0.60;;
44766;SDS011;30487;48.716;9.272;2023-04-23T10:01:53;1.35;;;0.60;;
44766;SDS011;30487;48.716;9.272;2023-04-23T10:04:20;0.63;;;0.50;;
44766;SDS011;30487;48.716;9.272;2023-04-23T10:06:47;1.92;;;0.73;;
44766;SDS011;30487;48.716;9.272;2023-04-23T10:09:19;1.30;;;0.70;;
44766;SDS011;30487;48.716;9.272;2023-04-23T10:11:49;6.25;;;3.70;;
44766;SDS011;30487;48.716;9.272;2023-04-23T10:14:16;1.60;;;0.70;;
44766;SDS011;30487;48.716;9.272;2023-04-23T10:16:43;1.17;;;0.80;;
44766;SDS011;30487;48.716;9.272;2023-04-23T10:19:12;1.30;;;0.60;;
44766;SDS011;30487;48.716;9.272;2023-04-23T10:21:39;1.27;;;0.80;;
44766;SDS011;30487;48.716;9.272;2023-04-23T10:24:07;1.42;;;0.80;;
44766;SDS011;30487;48.716;9.272;2023-04-23T10:26:36;1.25;;;0.73;;
44766;SDS011;30487;48.716;9.272;2023-04-23T10:29:05;0.82;;;0.50;;
44766;SDS011;30487;48.716;9.272;2023-04-23T10:31:37;1.35;;;0.60;;
44766;SDS011;30487;48.716;9.272;2023-04-23T10:34:03;1.83;;;0.73;;
44766;SDS011;30487;48.716;9.272;2023-04-23T10:36:31;0.60;;;0.50;;
44766;SDS011;30487;48.716;9.272;2023-04-23T10:38:57;1.50;;;0.70;;
44766;SDS011;30487;48.716;9.272;2023-04-23T10:41:28;1.25;;;0.55;;
44766;SDS011;30487;48.716;9.272;2023-04-23T10:44:00;1.63;;;0.70;;
44766;SDS011;30487;48.716;9.272;2023-04-23T10:46:31;1.42;;;0.80;;
44766;SDS011;30487;48.716;9.272;2023-04-23T10:54:01;3.08;;;0.80;;
44766;SDS011;30487;48.716;9.272;2023-04-23T10:56:31;1.17;;;0.77;;
44766;SDS011;30487;48.716;9.272;2023-04-23T10:58:57;0.65;;;0.60;;
44766;SDS011;30487;48.716;9.272;2023-04-23T11:01:27;1.27;;;0.70;;
44766;SDS011;30487;48.716;9.272;2023-04-23T11:03:54;1.25;;;0.60;;
44766;SDS011;30487;48.716;9.272;2023-04-23T11:12:06;1.90;;;0.70;;
44766;SDS011;30487;48.716;9.272;2023-04-23T11:14:36;2.15;;;0.90;;
44766;SDS011;30487;48.716;9.272;2023-04-23T11:17:06;1.00;;;0.70;;
44766;SDS011;30487;48.716;9.272;2023-04-23T11:19:35;1.70;;;0.80;;
44766;SDS011;30487;48.716;9.272;2023-04-23T11:22:14;0.73;;;0.60;;
44766;SDS011;30487;48.716;9.272;2023-04-23T11:24:42;2.70;;;0.80;;
44766;SDS011;30487;48.716;9.272;2023-04-23T11:27:13;1.55;;;0.68;;
44766;SDS011;30487;48.716;9.272;2023-04-23T11:29:41;0.95;;;0.60;;
44766;SDS011;30487;48.716;9.272;2023-04-23T11:32:08;1.02;;;0.60;;
44766;SDS011;30487;48.716;9.272;2023-04-23T11:34:38;1.38;;;0.70;;
44766;SDS011;30487;48.716;9.272;2023-04-23T11:37:08;2.63;;;0.70;;
44766;SDS011;30487;48.716;9.272;2023-04-23T11:39:34;1.80;;;0.80;;
44766;SDS011;30487;48.716;9.272;2023-04-23T11:42:00;1.23;;;0.70;;
44766;SDS011;30487;48.716;9.272;2023-04-23T11:44:27;1.38;;;0.70;;
44766;SDS011;30487;48.716;9.272;2023-04-23T11:46:53;1.33;;;0.80;;
44766;SDS011;30487;48.716;9.272;2023-04-23T11:49:19;1.35;;;0.68;;
44766;SDS011;30487;48.716;9.272;2023-04-23T11:51:45;0.98;;;0.60;;
44766;SDS011;30487;48.716;9.272;2023-04-23T11:54:11;0.88;;;0.68;;
44766;SDS011;30487;48.716;9.272;2023-04-23T11:56:38;0.70;;;0.50;;
44766;SDS011;30487;48.716;9.272;2023-04-23T11:59:05;1.52;;;0.70;;
44766;SDS011;30487;48.716;9.272;2023-04-23T12:01:41;1.13;;;0.77;;
44766;SDS011;30487;48.716;9.272;2023-04-23T12:04:11;1.73;;;0.70;;
44766;SDS011;30487;48.716;9.272;2023-04-23T12:06:39;0.65;;;0.60;;
44766;SDS011;30487;48.716;9.272;2023-04-23T12:09:06;0.90;;;0.70;;
44766;SDS011;30487;48.716;9.272;2023-04-23T12:11:34;1.55;;;0.60;;
44766;SDS011;30487;48.716;9.272;2023-04-23T12:14:00;0.90;;;0.60;;
44766;SDS011;30487;48.716;9.272;2023-04-23T12:16:32;0.80;;;0.60;;
44766;SDS011;30487;48.716;9.272;2023-04-23T12:19:19;1.30;;;0.60;;
44766;SDS011;30487;48.716;9.272;2023-04-23T12:21:50;2.78;;;0.80;;
44766;SDS011;30487;48.716;9.272;2023-04-23T12:24:20;2.22;;;0.90;;
44766;SDS011;30487;48.716;9.272;2023-04-23T12:26:51;2.60;;;1.08;;
44766;SDS011;30487;48.716;9.272;2023-04-23T12:29:19;2.08;;;1.40;;
44766;SDS011;30487;48.716;9.272;2023-04-23T12:31:46;1.63;;;0.90;;
44766;SDS011;30487;48.716;9.272;2023-04-23T12:34:13;2.63;;;0.73;;
44766;SDS011;30487;48.716;9.272;2023-04-23T12:36:43;1.85;;;0.80;;
44766;SDS011;30487;48.716;9.272;2023-04-23T12:42:04;1.50;;;0.80;;
44766;SDS011;30487;48.716;9.272;2023-04-23T12:44:31;0.85;;;0.70;;
44766;SDS011;30487;48.716;9.272;2023-04-23T12:47:01;1.30;;;0.60;;
44766;SDS011;30487;48.716;9.272;2023-04-23T12:49:28;1.40;;;0.60;;
44766;SDS011;30487;48.716;9.272;2023-04-23T12:51:55;1.17;;;0.68;;
44766;SDS011;30487;48.716;9.272;2023-04-23T12:54:24;1.67;;;0.73;;
44766;SDS011;30487;48.716;9.272;2023-04-23T12:56:55;1.50;;;0.77;;
44766;SDS011;30487;48.716;9.272;2023-04-23T12:59:21;2.35;;;0.70;;
44766;SDS011;30487;48.716;9.272;2023-04-23T13:01:47;3.38;;;0.80;;
44766;SDS011;30487;48.716;9.272;2023-04-23T13:04:14;1.10;;;0.80;;
44766;SDS011;30487;48.716;9.272;2023-04-23T13:06:40;1.52;;;0.88;;
44766;SDS011;30487;48.716;9.272;2023-04-23T13:09:06;1.35;;;0.80;;
44766;SDS011;30487;48.716;9.272;2023-04-23T13:11:35;1.20;;;0.70;;
44766;SDS011;30487;48.716;9.272;2023-04-23T13:14:04;2.22;;;0.77;;
44766;SDS011;30487;48.716;9.272;2023-04-23T13:16:31;3.42;;;0.75;;
44766;SDS011;30487;48.716;9.272;2023-04-23T13:18:56;1.30;;;0.68;;
44766;SDS011;30487;48.716;9.272;2023-04-23T13:21:23;3.17;;;0.73;;
44766;SDS011;30487;48.716;9.272;2023-04-23T13:23:49;1.95;;;0.73;;
44766;SDS011;30487;48.716;9.272;2023-04-23T13:26:15;1.48;;;0.70;;
44766;SDS011;30487;48.716;9.272;2023-04-23T13:28:41;2.70;;;0.68;;
44766;SDS011;30487;48.716;9.272;2023-04-23T13:31:07;3.60;;;0.75;;
44766;SDS011;30487;48.716;9.272;2023-04-23T13:33:32;5.07;;;0.80;;
44766;SDS011;30487;48.716;9.272;2023-04-23T13:35:59;1.80;;;0.93;;
44766;SDS011;30487;48.716;9.272;2023-04-23T13:38:26;2.85;;;0.65;;
44766;SDS011;30487;48.716;9.272;2023-04-23T13:40:52;1.33;;;0.70;;
44766;SDS011;30487;48.716;9.272;2023-04-23T13:43:18;0.82;;;0.60;;
44766;SDS011;30487;48.716;9.272;2023-04-23T13:45:44;1.05;;;0.70;;
44766;SDS011;30487;48.716;9.272;2023-04-23T13:48:11;2.85;;;0.98;;
44766;SDS011;30487;48.716;9.272;2023-04-23T13:50:40;1.08;;;0.65;;
44766;SDS011;30487;48.716;9.272;2023-04-23T13:53:07;1.27;;;0.70;;
44766;SDS011;30487;48.716;9.272;2023-04-23T13:55:32;1.10;;;0.60;;
44766;SDS011;30487;48.716;9.272;2023-04-23T13:57:58;2.88;;;0.73;;
44766;SDS011;30487;48.716;9.272;2023-04-23T14:00:25;1.63;;;0.70;;
44766;SDS011;30487;48.716;9.272;2023-04-23T14:02:52;1.65;;;0.90;;
44766;SDS011;30487;48.716;9.272;2023-04-23T14:05:17;2.42;;;0.70;;
44766;SDS011;30487;48.716;9.272;2023-04-23T14:07:43;1.70;;;0.70;;
44766;SDS011;30487;48.716;9.272;2023-04-23T14:10:09;1.45;;;0.70;;
44766;SDS011;30487;48.716;9.272;2023-04-23T14:12:36;2.55;;;0.90;;
44766;SDS011;30487;48.716;9.272;2023-04-23T14:15:03;1.73;;;1.00;;
44766;SDS011;30487;48.716;9.272;2023-04-23T14:17:30;2.88;;;0.82;;
44766;SDS011;30487;48.716;9.272;2023-04-23T14:19:55;1.38;;;0.73;;
44766;SDS011;30487;48.716;9.272;2023-04-23T14:22:21;1.45;;;0.75;;
44766;SDS011;30487;48.716;9.272;2023-04-23T14:24:50;1.63;;;0.80;;
44766;SDS011;30487;48.716;9.272;2023-04-23T14:27:23;1.95;;;0.75;;
44766;SDS011;30487;48.716;9.272;2023-04-23T14:29:51;1.58;;;0.70;;
44766;SDS011;30487;48.716;9.272;2023-04-23T14:32:21;2.70;;;0.60;;
44766;SDS011;30487;48.716;9.272;2023-04-23T14:34:48;1.23;;;0.80;;
44766;SDS011;30487;48.716;9.272;2023-04-23T14:37:14;1.73;;;0.77;;
44766;SDS011;30487;48.716;9.272;2023-04-23T14:39:41;1.98;;;0.60;;
44766;SDS011;30487;48.716;9.272;2023-04-23T14:42:07;2.22;;;0.82;;
44766;SDS011;30487;48.716;9.272;2023-04-23T14:44:33;1.63;;;0.77;;
44766;SDS011;30487;48.716;9.272;2023-04-23T14:46:58;2.90;;;1.08;;
44766;SDS011;30487;48.716;9.272;2023-04-23T14:49:24;0.60;;;0.60;;
44766;SDS011;30487;48.716;9.272;2023-04-23T14:51:50;1.95;;;0.80;;
44766;SDS011;30487;48.716;9.272;2023-04-23T14:54:18;2.15;;;0.82;;
44766;SDS011;30487;48.716;9.272;2023-04-23T14:56:44;2.92;;;0.80;;
44766;SDS011;30487;48.716;9.272;2023-04-23T14:59:10;1.30;;;0.70;;